createdAt,value
2019-05-03T00:00:03.329Z,11.80
2019-05-03T00:03:12.011Z,11.80
2019-05-03T00:05:46.538Z,11.90
2019-05-03T00:08:15.789Z,12.00
2019-05-03T00:10:43.609Z,12.00
2019-05-03T00:13:12.469Z,11.90
2019-05-03T00:16:05.514Z,11.70
2019-05-03T00:18:34.772Z,11.60
2019-05-03T00:21:02.606Z,11.50
2019-05-03T00:23:32.245Z,11.40
2019-05-03T00:26:00.046Z,11.40
2019-05-03T00:28:28.353Z,11.40
2019-05-03T00:33:24.560Z,11.60
2019-05-03T00:36:11.873Z,11.70
2019-05-03T00:38:41.878Z,11.80
2019-05-03T00:41:09.809Z,11.80
2019-05-03T00:43:37.462Z,11.80
2019-05-03T00:46:05.212Z,11.80
2019-05-03T00:48:33.921Z,11.90
2019-05-03T00:51:02.440Z,11.90
2019-05-03T00:53:31.777Z,11.80
2019-05-03T00:56:01.585Z,11.80
2019-05-03T00:58:31.674Z,11.80
2019-05-03T01:01:02.694Z,11.80
2019-05-03T01:03:32.419Z,11.70
2019-05-03T01:06:02.137Z,11.60
2019-05-03T01:08:29.869Z,11.60
2019-05-03T01:10:57.731Z,11.70
2019-05-03T01:13:25.395Z,11.80
2019-05-03T01:16:02.780Z,11.80
2019-05-03T01:18:32.510Z,11.90
2019-05-03T01:21:02.224Z,12.00
2019-05-03T01:23:30.181Z,12.10
2019-05-03T01:25:57.868Z,11.90
2019-05-03T01:28:25.707Z,11.90
2019-05-03T01:30:53.859Z,11.90
2019-05-03T01:33:22.639Z,11.90
2019-05-03T01:35:51.882Z,11.90
2019-05-03T01:38:19.831Z,11.80
2019-05-03T01:40:47.495Z,11.80
2019-05-03T01:43:15.261Z,11.60
2019-05-03T01:45:43.015Z,11.40
2019-05-03T01:48:41.500Z,11.40
2019-05-03T01:51:36.209Z,11.30
2019-05-03T01:54:05.565Z,11.30
2019-05-03T01:56:33.235Z,11.30
2019-05-03T01:59:01.889Z,11.30
2019-05-03T02:01:39.938Z,11.40
2019-05-03T02:04:17.678Z,11.40
2019-05-03T02:06:46.950Z,11.30
2019-05-03T02:09:14.710Z,11.30
2019-05-03T02:11:42.384Z,11.30
2019-05-03T02:14:12.212Z,11.20
2019-05-03T02:16:41.859Z,11.10
2019-05-03T02:19:09.372Z,11.10
2019-05-03T02:21:37.135Z,11.10
2019-05-03T02:24:04.871Z,11.20
2019-05-03T02:26:32.629Z,11.20
2019-05-03T02:29:01.853Z,11.20
2019-05-03T02:31:43.578Z,11.20
2019-05-03T02:34:12.557Z,11.20
2019-05-03T02:36:42.889Z,11.30
2019-05-03T02:39:13.639Z,11.30
2019-05-03T02:41:47.843Z,11.30
2019-05-03T02:44:15.603Z,11.30
2019-05-03T02:47:10.609Z,11.20
2019-05-03T02:49:45.535Z,11.20
2019-05-03T02:52:36.397Z,11.30
2019-05-03T02:55:08.372Z,11.20
2019-05-03T02:57:37.004Z,11.20
2019-05-03T03:00:07.242Z,11.20
2019-05-03T03:02:38.161Z,11.30
2019-05-03T03:05:06.927Z,11.20
2019-05-03T03:07:37.722Z,11.20
2019-05-03T03:10:06.891Z,11.20
2019-05-03T03:12:39.568Z,11.20
2019-05-03T03:15:09.223Z,11.20
2019-05-03T03:17:40.202Z,11.30
2019-05-03T03:20:09.678Z,11.40
2019-05-03T03:22:41.623Z,11.30
2019-05-03T03:25:17.218Z,11.20
2019-05-03T03:27:48.838Z,11.10
2019-05-03T03:30:38.808Z,11.10
2019-05-03T03:33:11.831Z,11.10
2019-05-03T03:35:41.969Z,11.10
2019-05-03T03:38:11.367Z,11.00
2019-05-03T03:40:39.349Z,11.00
2019-05-03T03:43:09.337Z,10.90
2019-05-03T03:45:39.794Z,10.80
2019-05-03T03:48:10.142Z,10.70
2019-05-03T03:50:40.674Z,10.70
2019-05-03T03:53:10.603Z,10.70
2019-05-03T03:55:41.643Z,10.80
2019-05-03T03:58:11.037Z,10.70
2019-05-03T04:00:39.326Z,10.70
2019-05-03T04:03:07.297Z,10.70
2019-05-03T04:05:35.967Z,10.80
2019-05-03T04:08:05.669Z,10.80
2019-05-03T04:10:35.249Z,10.80
2019-05-03T04:13:05.773Z,10.70
2019-05-03T04:15:56.157Z,10.70
2019-05-03T04:18:35.971Z,10.70
2019-05-03T04:21:05.617Z,10.60
2019-05-03T04:23:35.816Z,10.70
2019-05-03T04:26:06.778Z,10.60
2019-05-03T04:28:35.974Z,10.70
2019-05-03T04:31:06.014Z,10.70
2019-05-03T04:33:35.735Z,10.60
2019-05-03T04:36:05.401Z,10.70
2019-05-03T04:38:32.656Z,10.70
2019-05-03T04:41:00.327Z,10.60
2019-05-03T04:43:28.202Z,10.50
2019-05-03T04:46:08.692Z,10.60
2019-05-03T04:48:38.038Z,10.70
2019-05-03T04:51:06.115Z,10.70
2019-05-03T04:53:35.975Z,10.80
2019-05-03T04:56:05.887Z,10.80
2019-05-03T04:58:36.277Z,10.80
2019-05-03T05:01:06.254Z,10.70
2019-05-03T05:03:36.108Z,10.70
2019-05-03T05:06:06.002Z,10.60
2019-05-03T05:08:35.598Z,10.50
2019-05-03T05:11:05.190Z,10.50
2019-05-03T05:13:35.362Z,10.40
2019-05-03T05:16:02.269Z,10.40
2019-05-03T05:18:38.413Z,10.40
2019-05-03T05:21:12.101Z,10.40
2019-05-03T05:23:58.720Z,10.30
2019-05-03T05:26:35.469Z,10.30
2019-05-03T05:29:08.163Z,10.30
2019-05-03T05:31:37.431Z,10.20
2019-05-03T05:34:06.282Z,10.20
2019-05-03T05:36:34.846Z,10.20
2019-05-03T05:39:05.236Z,10.20
2019-05-03T05:41:34.762Z,10.20
2019-05-03T05:44:02.822Z,10.20
2019-05-03T05:46:35.896Z,10.20
2019-05-03T05:49:06.990Z,10.30
2019-05-03T05:51:36.385Z,10.20
2019-05-03T05:54:05.243Z,10.20
2019-05-03T05:56:44.661Z,10.20
2019-05-03T05:59:36.175Z,10.10
2019-05-03T06:02:08.318Z,10.10
2019-05-03T06:04:36.223Z,10.10
2019-05-03T06:07:26.473Z,10.10
2019-05-03T06:10:07.766Z,10.10
2019-05-03T06:12:54.565Z,10.00
2019-05-03T06:15:52.563Z,9.90
2019-05-03T06:18:26.946Z,9.90
2019-05-03T06:21:15.806Z,9.80
2019-05-03T06:23:51.558Z,9.80
2019-05-03T06:26:58.610Z,9.80
2019-05-03T06:29:27.922Z,9.70
2019-05-03T06:32:27.422Z,9.70
2019-05-03T06:34:56.743Z,9.70
2019-05-03T06:37:26.685Z,9.60
2019-05-03T06:39:55.989Z,9.60
2019-05-03T06:42:25.513Z,9.70
2019-05-03T06:44:54.617Z,9.80
2019-05-03T06:47:22.621Z,9.80
2019-05-03T06:49:50.302Z,9.80
2019-05-03T06:52:19.887Z,10.00
2019-05-03T06:54:47.997Z,10.10
2019-05-03T06:57:17.274Z,10.00
2019-05-03T06:59:54.983Z,10.00
2019-05-03T07:02:39.912Z,10.00
2019-05-03T07:05:17.309Z,10.00
2019-05-03T07:07:54.607Z,10.10
2019-05-03T07:10:30.230Z,10.00
2019-05-03T07:13:04.945Z,10.00
2019-05-03T07:15:34.985Z,10.00
2019-05-03T07:18:02.763Z,10.00
2019-05-03T07:20:44.608Z,10.00
2019-05-03T07:23:15.595Z,10.00
2019-05-03T07:25:44.786Z,10.10
2019-05-03T07:28:14.741Z,10.20
2019-05-03T07:30:42.207Z,10.20
2019-05-03T07:33:15.666Z,10.10
2019-05-03T07:35:44.968Z,10.10
2019-05-03T07:38:12.717Z,10.00
2019-05-03T07:40:40.650Z,10.10
2019-05-03T07:43:08.408Z,10.10
2019-05-03T07:45:36.083Z,10.10
2019-05-03T07:48:04.644Z,10.10
2019-05-03T07:50:33.312Z,10.10
2019-05-03T07:53:02.081Z,10.00
2019-05-03T07:55:47.791Z,10.00
2019-05-03T07:58:19.673Z,10.00
2019-05-03T08:01:02.923Z,10.20
2019-05-03T08:03:20.474Z,10.30
2019-05-03T08:05:48.277Z,10.40
2019-05-03T08:08:16.098Z,10.50
2019-05-03T08:10:45.036Z,10.40
2019-05-03T08:13:14.854Z,10.50
2019-05-03T08:15:42.680Z,10.60
2019-05-03T08:18:10.351Z,10.70
2019-05-03T08:20:38.129Z,10.70
2019-05-03T08:23:05.905Z,10.70
2019-05-03T08:25:35.414Z,10.80
2019-05-03T08:30:44.504Z,11.00
2019-05-03T08:33:24.870Z,11.00
2019-05-03T08:35:55.489Z,11.00
2019-05-03T08:38:25.602Z,11.10
2019-05-03T08:40:54.875Z,11.20
2019-05-03T08:43:25.155Z,11.30
2019-05-03T08:45:52.828Z,11.40
2019-05-03T08:48:20.517Z,11.40
2019-05-03T08:50:48.379Z,11.30
2019-05-03T08:53:16.081Z,11.20
2019-05-03T08:55:44.957Z,11.10
2019-05-03T08:58:12.883Z,11.00
2019-05-03T09:00:42.497Z,11.10
2019-05-03T09:03:10.270Z,11.40
2019-05-03T09:05:38.026Z,11.60
2019-05-03T09:08:05.911Z,11.90
2019-05-03T09:10:49.259Z,12.10
2019-05-03T09:13:19.901Z,12.20
2019-05-03T09:15:49.695Z,12.30
2019-05-03T09:18:19.002Z,12.30
2019-05-03T09:20:46.693Z,12.30
2019-05-03T09:23:15.002Z,12.30
2019-05-03T09:25:42.994Z,12.30
2019-05-03T09:28:10.951Z,12.50
2019-05-03T09:30:38.748Z,12.60
2019-05-03T09:33:09.039Z,12.90
2019-05-03T09:35:36.234Z,13.10
2019-05-03T09:38:05.736Z,13.20
2019-05-03T09:40:35.196Z,13.00
2019-05-03T09:43:04.499Z,13.10
2019-05-03T09:45:32.442Z,13.10
2019-05-03T09:48:00.250Z,13.20
2019-05-03T09:50:28.219Z,13.30
2019-05-03T09:52:56.079Z,13.50
2019-05-03T09:55:41.724Z,13.60
2019-05-03T09:58:09.517Z,13.80
2019-05-03T10:00:37.323Z,13.70
2019-05-03T10:03:05.642Z,13.50
2019-05-03T10:05:35.094Z,13.40
2019-05-03T10:08:05.094Z,13.30
2019-05-03T10:10:52.304Z,13.00
2019-05-03T10:13:23.794Z,12.90
2019-05-03T10:15:51.270Z,12.90
2019-05-03T10:18:18.942Z,13.10
2019-05-03T10:20:46.736Z,13.30
2019-05-03T10:23:36.387Z,13.40
2019-05-03T10:26:05.307Z,13.50
2019-05-03T10:28:33.394Z,13.70
2019-05-03T10:31:01.323Z,13.70
2019-05-03T10:33:35.620Z,13.70
2019-05-03T10:36:05.571Z,13.60
2019-05-03T10:38:33.468Z,13.50
2019-05-03T10:41:01.149Z,13.50
2019-05-03T10:43:28.954Z,13.60
2019-05-03T10:45:56.658Z,13.50
2019-05-03T10:48:24.888Z,13.50
2019-05-03T10:50:53.070Z,13.50
2019-05-03T10:53:25.593Z,13.60
2019-05-03T10:56:13.854Z,13.70
2019-05-03T10:58:46.327Z,13.70
2019-05-03T11:01:17.432Z,13.70
2019-05-03T11:03:46.818Z,13.80
2019-05-03T11:06:14.882Z,14.00
2019-05-03T11:08:42.748Z,14.10
2019-05-03T11:11:10.568Z,14.20
2019-05-03T11:13:38.430Z,14.20
2019-05-03T11:16:06.834Z,14.30
2019-05-03T11:18:34.647Z,14.30
2019-05-03T11:21:02.397Z,14.50
2019-05-03T11:23:30.029Z,14.40
2019-05-03T11:25:57.795Z,14.30
2019-05-03T11:28:26.020Z,14.20
2019-05-03T11:31:01.375Z,14.20
2019-05-03T11:33:30.425Z,14.20
2019-05-03T11:36:19.291Z,14.10
2019-05-03T11:38:48.630Z,14.20
2019-05-03T11:41:29.208Z,14.30
2019-05-03T11:43:46.036Z,14.40
2019-05-03T11:46:13.812Z,14.50
2019-05-03T11:48:41.507Z,14.50
2019-05-03T11:51:09.250Z,14.50
2019-05-03T11:53:39.673Z,14.20
2019-05-03T11:56:07.463Z,14.30
2019-05-03T11:58:35.167Z,14.30
2019-05-03T12:01:19.551Z,14.40
2019-05-03T12:03:49.965Z,14.50
2019-05-03T12:06:17.981Z,14.70
2019-05-03T12:08:45.681Z,15.00
2019-05-03T12:11:15.090Z,15.30
2019-05-03T12:13:45.443Z,15.60
2019-05-03T12:16:19.406Z,16.00
2019-05-03T12:18:52.211Z,16.40
2019-05-03T12:21:13.703Z,16.50
2019-05-03T12:23:42.688Z,16.70
2019-05-03T12:26:13.707Z,16.60
2019-05-03T12:28:41.493Z,16.60
2019-05-03T12:31:24.251Z,16.20
2019-05-03T12:33:38.909Z,16.00
2019-05-03T12:36:06.758Z,15.80
2019-05-03T12:38:35.016Z,15.80
2019-05-03T12:41:05.344Z,15.60
2019-05-03T12:43:32.687Z,15.40
2019-05-03T12:46:00.516Z,15.50
2019-05-03T12:48:28.306Z,15.40
2019-05-03T12:50:56.378Z,15.50
2019-05-03T12:53:24.697Z,15.50
2019-05-03T12:55:52.529Z,15.50
2019-05-03T12:58:22.706Z,15.40
2019-05-03T13:01:04.954Z,15.40
2019-05-03T13:03:40.792Z,15.40
2019-05-03T13:06:10.115Z,15.40
2019-05-03T13:08:41.230Z,15.40
2019-05-03T13:11:09.262Z,15.60
2019-05-03T13:13:37.128Z,15.90
2019-05-03T13:16:05.733Z,16.30
2019-05-03T13:18:35.365Z,16.50
2019-05-03T13:21:05.853Z,16.60
2019-05-03T13:23:35.374Z,17.00
2019-05-03T13:26:05.238Z,17.30
2019-05-03T13:28:32.590Z,17.80
2019-05-03T13:31:00.399Z,18.10
2019-05-03T13:33:28.207Z,17.90
2019-05-03T13:35:56.009Z,17.90
2019-05-03T13:38:25.043Z,18.10
2019-05-03T13:40:54.355Z,18.00
2019-05-03T13:43:22.273Z,17.70
2019-05-03T13:45:50.032Z,17.30
2019-05-03T13:48:20.918Z,17.00
2019-05-03T13:50:47.478Z,16.80
2019-05-03T13:53:16.123Z,16.70
2019-05-03T13:55:44.551Z,16.50
2019-05-03T13:58:14.542Z,16.40
2019-05-03T14:00:42.092Z,16.20
2019-05-03T14:03:09.786Z,16.10
2019-05-03T14:05:37.576Z,16.20
2019-05-03T14:08:05.391Z,16.20
2019-05-03T14:10:33.199Z,16.50
2019-05-03T14:13:00.914Z,16.90
2019-05-03T14:15:28.547Z,17.30
2019-05-03T14:17:56.265Z,17.40
2019-05-03T14:20:46.558Z,17.50
2019-05-03T14:23:15.960Z,17.50
2019-05-03T14:25:44.640Z,17.40
2019-05-03T14:28:14.505Z,17.30
2019-05-03T14:30:42.388Z,17.30
2019-05-03T14:33:10.614Z,16.80
2019-05-03T14:35:38.411Z,16.60
2019-05-03T14:38:06.111Z,16.40
2019-05-03T14:40:33.801Z,16.40
2019-05-03T14:43:01.638Z,16.30
2019-05-03T14:45:29.645Z,16.10
2019-05-03T14:47:57.664Z,16.10
2019-05-03T14:50:25.605Z,15.80
2019-05-03T14:52:56.734Z,15.70
2019-05-03T14:55:36.204Z,15.60
2019-05-03T14:58:25.948Z,15.60
2019-05-03T15:01:02.218Z,15.50
2019-05-03T15:03:31.530Z,15.70
2019-05-03T15:06:01.534Z,15.70
2019-05-03T15:08:29.399Z,15.80
2019-05-03T15:10:57.108Z,15.60
2019-05-03T15:13:25.252Z,15.60
2019-05-03T15:15:54.686Z,15.60
2019-05-03T15:18:22.768Z,15.60
2019-05-03T15:20:50.466Z,15.60
2019-05-03T15:23:18.182Z,15.70
2019-05-03T15:25:45.873Z,15.80
2019-05-03T15:28:13.661Z,15.90
2019-05-03T15:30:41.464Z,15.80
2019-05-03T15:33:09.279Z,15.70
2019-05-03T15:35:37.063Z,15.60
2019-05-03T15:38:05.553Z,15.60
2019-05-03T15:40:33.591Z,15.70
2019-05-03T15:43:18.361Z,15.80
2019-05-03T15:46:05.213Z,15.70
2019-05-03T15:48:39.279Z,15.70
2019-05-03T15:51:08.675Z,15.70
2019-05-03T15:53:36.552Z,15.60
2019-05-03T15:56:05.388Z,15.50
2019-05-03T15:58:33.366Z,15.50
2019-05-03T16:01:01.394Z,15.40
2019-05-03T16:03:29.394Z,15.20
2019-05-03T16:05:57.074Z,15.20
2019-05-03T16:08:24.967Z,15.20
2019-05-03T16:10:54.712Z,15.00
2019-05-03T16:13:22.520Z,14.70
2019-05-03T16:15:50.297Z,14.50
2019-05-03T16:18:18.014Z,14.40
2019-05-03T16:20:45.783Z,14.30
2019-05-03T16:23:15.265Z,14.30
2019-05-03T16:25:44.870Z,14.30
2019-05-03T16:28:20.346Z,14.30
2019-05-03T16:31:05.847Z,14.30
2019-05-03T16:33:35.150Z,14.20
2019-05-03T16:36:03.101Z,14.10
2019-05-03T16:38:30.913Z,14.10
2019-05-03T16:40:58.728Z,14.00
2019-05-03T16:43:26.455Z,13.90
2019-05-03T16:45:55.152Z,13.90
2019-05-03T16:48:24.713Z,13.90
2019-05-03T16:50:52.790Z,14.00
2019-05-03T16:53:20.474Z,14.10
2019-05-03T16:55:48.255Z,14.30
2019-05-03T16:58:16.997Z,14.40
2019-05-03T17:00:45.194Z,14.40
2019-05-03T17:03:14.711Z,14.60
2019-05-03T17:06:01.504Z,14.60
2019-05-03T17:08:59.282Z,14.70
2019-05-03T17:11:28.693Z,14.80
2019-05-03T17:13:57.664Z,14.80
2019-05-03T17:16:25.713Z,14.80
2019-05-03T17:18:55.083Z,14.70
2019-05-03T17:21:23.054Z,14.70
2019-05-03T17:23:50.779Z,14.70
2019-05-03T17:26:18.591Z,14.70
2019-05-03T17:28:46.321Z,14.70
2019-05-03T17:31:14.199Z,14.60
2019-05-03T17:33:51.479Z,14.60
2019-05-03T17:36:11.557Z,14.30
2019-05-03T17:38:39.494Z,14.30
2019-05-03T17:41:21.325Z,14.20
2019-05-03T17:43:57.463Z,14.10
2019-05-03T17:46:26.847Z,14.10
2019-05-03T17:48:54.790Z,14.20
2019-05-03T17:51:40.929Z,14.20
2019-05-03T17:54:29.747Z,14.10
2019-05-03T17:57:04.609Z,14.10
2019-05-03T17:59:38.306Z,14.10
2019-05-03T18:02:26.118Z,14.10
2019-05-03T18:05:14.976Z,14.10
2019-05-03T18:08:03.899Z,14.10
2019-05-03T18:10:34.244Z,14.20
2019-05-03T18:13:03.719Z,14.20
2019-05-03T18:15:31.520Z,14.30
2019-05-03T18:17:59.597Z,14.30
2019-05-03T18:20:27.345Z,14.20
2019-05-03T18:22:55.155Z,14.00
2019-05-03T18:25:25.031Z,13.90
2019-05-03T18:28:08.452Z,13.80
2019-05-03T18:30:36.224Z,13.80
2019-05-03T18:33:04.832Z,13.90
2019-05-03T18:35:32.811Z,14.00
2019-05-03T18:38:00.945Z,14.00
2019-05-03T18:40:30.403Z,14.10
2019-05-03T18:43:07.421Z,14.10
2019-05-03T18:45:56.225Z,14.00
2019-05-03T18:48:26.456Z,14.00
2019-05-03T18:50:54.819Z,14.00
2019-05-03T18:53:22.733Z,14.00
2019-05-03T18:55:50.563Z,14.00
2019-05-03T18:58:18.380Z,14.00
2019-05-03T19:00:46.166Z,14.00
2019-05-03T19:03:14.029Z,14.00
2019-05-03T19:05:45.358Z,14.00
2019-05-03T19:08:34.952Z,13.90
2019-05-03T19:11:09.672Z,13.90
2019-05-03T19:13:55.268Z,13.80
2019-05-03T19:16:41.293Z,13.80
2019-05-03T19:19:11.261Z,13.70
2019-05-03T19:21:40.025Z,13.80
2019-05-03T19:24:07.927Z,13.70
2019-05-03T19:26:35.695Z,13.70
2019-05-03T19:29:04.428Z,13.60
2019-05-03T19:31:32.825Z,13.60
2019-05-03T19:34:00.763Z,13.70
2019-05-03T19:36:28.595Z,13.60
2019-05-03T19:38:56.445Z,13.50
2019-05-03T19:41:25.129Z,13.50
2019-05-03T19:43:54.795Z,13.60
2019-05-03T19:46:24.678Z,13.60
2019-05-03T19:48:54.578Z,13.50
2019-05-03T19:51:22.191Z,13.50
2019-05-03T19:53:54.905Z,13.50
2019-05-03T19:56:22.930Z,13.50
2019-05-03T19:58:55.218Z,13.50
2019-05-03T20:01:35.309Z,13.40
2019-05-03T20:04:30.230Z,13.40
2019-05-03T20:07:06.937Z,13.40
2019-05-03T20:09:36.302Z,13.40
2019-05-03T20:12:04.588Z,13.30
2019-05-03T20:14:32.476Z,13.30
2019-05-03T20:17:00.264Z,13.30
2019-05-03T20:19:28.186Z,13.30
2019-05-03T20:21:56.664Z,13.30
2019-05-03T20:24:25.324Z,13.30
2019-05-03T20:26:53.430Z,13.30
2019-05-03T20:29:21.256Z,13.20
2019-05-03T20:31:49.134Z,13.00
2019-05-03T20:34:16.890Z,13.00
2019-05-03T20:36:45.341Z,13.10
2019-05-03T20:39:14.854Z,13.10
2019-05-03T20:41:42.806Z,13.10
2019-05-03T20:44:35.973Z,13.10
2019-05-03T20:47:19.270Z,13.00
2019-05-03T20:50:08.127Z,12.80
2019-05-03T20:52:37.556Z,12.70
2019-05-03T20:55:05.268Z,12.70
2019-05-03T20:57:35.185Z,12.70
2019-05-03T21:00:04.538Z,12.70
2019-05-03T21:02:34.483Z,12.70
2019-05-03T21:05:04.386Z,12.70
2019-05-03T21:07:35.054Z,12.70
2019-05-03T21:10:03.477Z,12.80
2019-05-03T21:12:32.341Z,12.90
2019-05-03T21:15:00.153Z,12.90
2019-05-03T21:17:49.070Z,12.90
2019-05-03T21:20:45.031Z,12.80
2019-05-03T21:23:15.296Z,12.90
2019-05-03T21:26:09.444Z,12.90
2019-05-03T21:28:32.050Z,12.80
2019-05-03T21:30:59.761Z,12.70
2019-05-03T21:33:27.626Z,12.60
2019-05-03T21:35:55.743Z,12.50
2019-05-03T21:38:24.621Z,12.60
2019-05-03T21:40:54.544Z,12.60
2019-05-03T21:43:22.361Z,12.70
2019-05-03T21:45:55.805Z,12.70
2019-05-03T21:48:28.703Z,12.70
2019-05-03T21:50:58.072Z,12.60
2019-05-03T21:53:25.817Z,12.60
2019-05-03T21:55:53.592Z,12.60
2019-05-03T21:58:21.379Z,12.60
2019-05-03T22:01:00.334Z,12.60
2019-05-03T22:03:29.684Z,12.60
2019-05-03T22:05:58.073Z,12.50
2019-05-03T22:08:32.105Z,12.60
2019-05-03T22:11:01.528Z,12.50
2019-05-03T22:13:29.545Z,12.40
2019-05-03T22:16:10.510Z,12.40
2019-05-03T22:18:40.277Z,12.20
2019-05-03T22:21:16.865Z,12.20
2019-05-03T22:24:02.150Z,12.10
2019-05-03T22:26:49.990Z,12.10
2019-05-03T22:29:19.393Z,12.10
2019-05-03T22:31:47.369Z,12.00
2019-05-03T22:34:15.244Z,11.70
2019-05-03T22:36:44.388Z,11.70
2019-05-03T22:39:12.297Z,11.70
2019-05-03T22:41:40.145Z,11.50
2019-05-03T22:44:07.840Z,11.50
2019-05-03T22:46:35.788Z,11.50
2019-05-03T22:49:04.905Z,11.50
2019-05-03T22:51:34.567Z,11.50
2019-05-03T22:54:02.440Z,11.40
2019-05-03T22:56:30.195Z,11.40
2019-05-03T22:58:57.888Z,11.30
2019-05-03T23:01:25.697Z,11.30
2019-05-03T23:03:55.096Z,11.40
2019-05-03T23:06:25.053Z,11.40
2019-05-03T23:08:55.974Z,11.40
2019-05-03T23:11:24.420Z,11.50
2019-05-03T23:14:00.774Z,11.60
2019-05-03T23:16:30.758Z,11.60
2019-05-03T23:18:59.160Z,11.70
2019-05-03T23:21:30.533Z,11.80
2019-05-03T23:23:59.939Z,11.80
2019-05-03T23:26:27.951Z,11.80
2019-05-03T23:28:55.701Z,11.80
2019-05-03T23:31:25.179Z,11.80
2019-05-03T23:33:54.477Z,11.80
2019-05-03T23:36:32.737Z,11.90
2019-05-03T23:38:51.929Z,11.90
2019-05-03T23:41:19.613Z,12.00
2019-05-03T23:43:47.377Z,11.90
2019-05-03T23:46:16.906Z,12.00
2019-05-03T23:48:46.390Z,12.00
2019-05-03T23:51:44.313Z,12.10
2019-05-03T23:54:14.954Z,12.10
2019-05-03T23:56:43.122Z,12.10
2019-05-03T23:59:10.889Z,12.10
